Time;durP1;ratioP1;P1;durP2;ratioP2;P2;SDS_P1;SDS_P2;PMS_P1;PMS_P2;Temp;Humidity;BMP_temperature;BMP_pressure;BME280_temperature;BME280_humidity;BME280_pressure;Samples;Min_cycle;Max_cycle;Signal;HPM_P1;HPM_P2
2023/10/18 00:00:24;;;;;;;2.47;2.28;;;;;;;;;;5152413;27;39764;-70
2023/10/18 00:02:53;;;;;;;3.55;2.45;;;;;;;;;;5166990;27;41720;-70
2023/10/18 00:05:22;;;;;;;3.03;2.35;;;;;;;;;;5170727;27;41222;-70
2023/10/18 00:07:51;;;;;;;2.95;2.30;;;;;;;;;;5143632;27;41825;-70
2023/10/18 00:10:20;;;;;;;4.00;2.45;;;;;;;;;;5138179;27;42025;-70
2023/10/18 00:12:52;;;;;;;3.17;2.80;;;;;;;;;;5164253;27;40950;-70
2023/10/18 00:15:20;;;;;;;2.63;2.40;;;;;;;;;;5158590;27;41429;-70
2023/10/18 00:17:48;;;;;;;2.60;2.40;;;;;;;;;;5143449;27;41527;-70
2023/10/18 00:20:20;;;;;;;3.47;2.67;;;;;;;;;;5169789;27;39902;-70
2023/10/18 00:22:49;;;;;;;4.82;2.60;;;;;;;;;;5170126;27;42595;-70
2023/10/18 00:25:17;;;;;;;4.82;2.75;;;;;;;;;;5150490;27;42104;-70
2023/10/18 00:27:46;;;;;;;2.83;2.53;;;;;;;;;;5151083;27;41343;-70
2023/10/18 00:30:18;;;;;;;3.20;2.50;;;;;;;;;;5136069;27;40643;-70
2023/10/18 00:32:46;;;;;;;2.90;2.50;;;;;;;;;;5161451;27;40228;-71
2023/10/18 00:35:18;;;;;;;2.75;2.45;;;;;;;;;;5148315;27;40777;-70
2023/10/18 00:37:47;;;;;;;4.00;2.13;;;;;;;;;;5138638;27;41426;-70
2023/10/18 00:40:32;;;;;;;3.35;2.70;;;;;;;;;;5150491;27;40409;-70
2023/10/18 00:43:11;;;;;;;2.47;2.28;;;;;;;;;;5141550;27;42508;-70
2023/10/18 00:45:43;;;;;;;3.22;2.50;;;;;;;;;;5138062;27;42663;-70
2023/10/18 00:48:13;;;;;;;2.83;2.50;;;;;;;;;;5147893;27;39867;-70
2023/10/18 00:50:43;;;;;;;3.28;2.58;;;;;;;;;;5158359;27;41697;-70
2023/10/18 00:53:11;;;;;;;3.35;2.72;;;;;;;;;;5151185;27;39099;-70
2023/10/18 00:55:39;;;;;;;4.22;2.75;;;;;;;;;;5145015;27;40562;-70
2023/10/18 00:58:08;;;;;;;2.80;2.50;;;;;;;;;;5143102;27;42234;-70
2023/10/18 01:00:40;;;;;;;3.47;3.17;;;;;;;;;;5150551;27;40105;-70
2023/10/18 01:03:15;;;;;;;2.47;2.28;;;;;;;;;;5137875;27;42603;-70
2023/10/18 01:05:59;;;;;;;3.00;2.63;;;;;;;;;;5147390;27;40695;-70
2023/10/18 01:08:29;;;;;;;4.72;2.78;;;;;;;;;;5165182;27;40304;-70
2023/10/18 01:11:03;;;;;;;3.97;2.90;;;;;;;;;;5157882;27;41109;-70
2023/10/18 01:13:34;;;;;;;3.28;2.70;;;;;;;;;;5162631;27;39170;-70
2023/10/18 01:16:05;;;;;;;3.20;2.83;;;;;;;;;;5134918;27;40165;-70
2023/10/18 01:18:34;;;;;;;3.42;2.40;;;;;;;;;;5138320;27;42278;-70
2023/10/18 01:21:14;;;;;;;2.92;2.63;;;;;;;;;;5132748;27;38627;-70
2023/10/18 01:23:49;;;;;;;3.08;2.50;;;;;;;;;;5149561;27;41754;-70
2023/10/18 01:26:18;;;;;;;2.90;2.60;;;;;;;;;;5149602;27;41992;-70
2023/10/18 01:28:46;;;;;;;2.75;2.55;;;;;;;;;;5150116;27;40860;-70
2023/10/18 01:31:14;;;;;;;3.38;2.90;;;;;;;;;;5150876;27;41417;-70
2023/10/18 01:33:43;;;;;;;3.75;2.60;;;;;;;;;;5148561;27;38719;-70
2023/10/18 01:36:14;;;;;;;3.53;2.88;;;;;;;;;;5150339;27;42037;-70
2023/10/18 01:38:43;;;;;;;3.13;2.83;;;;;;;;;;5142233;27;42112;-70
2023/10/18 01:41:16;;;;;;;3.97;2.70;;;;;;;;;;5147075;27;41992;-70
2023/10/18 01:43:47;;;;;;;3.10;2.78;;;;;;;;;;5137634;27;42537;-71
2023/10/18 01:46:16;;;;;;;3.10;2.55;;;;;;;;;;5135989;27;41809;-70
2023/10/18 01:48:50;;;;;;;2.65;2.45;;;;;;;;;;5143201;27;38880;-70
2023/10/18 01:51:19;;;;;;;3.38;2.85;;;;;;;;;;5134484;27;42111;-70
2023/10/18 01:53:50;;;;;;;2.95;2.53;;;;;;;;;;5146783;27;43051;-70
2023/10/18 01:56:20;;;;;;;3.03;2.63;;;;;;;;;;5149441;27;42189;-70
2023/10/18 01:58:49;;;;;;;2.97;2.38;;;;;;;;;;5147941;27;44594;-70
2023/10/18 02:01:17;;;;;;;2.78;2.58;;;;;;;;;;5145236;27;39371;-70
2023/10/18 02:03:45;;;;;;;4.75;3.15;;;;;;;;;;5154169;27;40140;-70
2023/10/18 02:06:15;;;;;;;2.83;2.42;;;;;;;;;;5150399;27;42127;-70
2023/10/18 02:08:43;;;;;;;3.45;2.80;;;;;;;;;;5147382;27;38925;-70
2023/10/18 02:11:11;;;;;;;2.60;2.33;;;;;;;;;;5145475;27;41727;-70
2023/10/18 02:13:39;;;;;;;3.45;2.83;;;;;;;;;;5147488;27;40702;-70
2023/10/18 02:16:14;;;;;;;3.28;2.75;;;;;;;;;;5148226;27;38954;-70
2023/10/18 02:18:44;;;;;;;3.72;2.75;;;;;;;;;;5132393;27;40336;-70
2023/10/18 02:21:13;;;;;;;3.97;2.78;;;;;;;;;;5150277;27;40076;-70
2023/10/18 02:23:42;;;;;;;2.83;2.50;;;;;;;;;;5149465;27;41603;-70
2023/10/18 02:26:27;;;;;;;2.92;2.60;;;;;;;;;;5135277;27;42031;-70
2023/10/18 02:28:59;;;;;;;3.83;3.10;;;;;;;;;;5148264;27;40406;-70
2023/10/18 02:31:32;;;;;;;3.40;2.70;;;;;;;;;;5155771;27;40736;-70
2023/10/18 02:34:04;;;;;;;3.15;2.72;;;;;;;;;;5152737;27;41405;-70
2023/10/18 02:36:49;;;;;;;3.22;2.50;;;;;;;;;;5147916;27;40268;-71
2023/10/18 02:39:23;;;;;;;3.10;2.80;;;;;;;;;;5150842;27;41360;-70
2023/10/18 02:41:51;;;;;;;3.28;2.83;;;;;;;;;;5146943;27;39297;-70
2023/10/18 02:44:22;;;;;;;3.13;2.80;;;;;;;;;;5138173;27;41026;-70
2023/10/18 02:46:54;;;;;;;3.35;3.05;;;;;;;;;;5135557;27;41801;-70
2023/10/18 02:49:27;;;;;;;3.42;2.75;;;;;;;;;;5148201;27;38758;-70
2023/10/18 02:51:57;;;;;;;3.10;2.80;;;;;;;;;;5145922;27;40941;-70
2023/10/18 02:54:25;;;;;;;2.75;2.40;;;;;;;;;;5145229;27;41953;-70
2023/10/18 02:56:53;;;;;;;2.80;2.38;;;;;;;;;;5148677;27;40389;-70
2023/10/18 02:59:23;;;;;;;3.17;2.88;;;;;;;;;;5143518;27;42301;-70
2023/10/18 03:01:54;;;;;;;3.47;2.80;;;;;;;;;;5145237;27;32957;-69
2023/10/18 03:04:26;;;;;;;2.95;2.58;;;;;;;;;;5148338;27;42266;-70
2023/10/18 03:06:55;;;;;;;3.28;2.75;;;;;;;;;;5150940;27;43025;-70
2023/10/18 03:09:38;;;;;;;3.22;2.85;;;;;;;;;;5153736;27;41252;-70
2023/10/18 03:12:13;;;;;;;3.50;2.90;;;;;;;;;;5148051;27;41147;-70
2023/10/18 03:14:53;;;;;;;3.30;2.92;;;;;;;;;;5149500;27;20318;-69
2023/10/18 03:17:24;;;;;;;3.38;3.08;;;;;;;;;;5164350;27;40850;-70
2023/10/18 03:19:54;;;;;;;3.30;2.90;;;;;;;;;;5147581;27;40886;-70
2023/10/18 03:22:23;;;;;;;3.08;2.78;;;;;;;;;;5162764;27;43094;-70
2023/10/18 03:24:53;;;;;;;3.55;2.88;;;;;;;;;;5147966;27;41250;-70
2023/10/18 03:27:21;;;;;;;2.75;2.47;;;;;;;;;;5148502;27;41056;-70
2023/10/18 03:29:49;;;;;;;3.40;2.90;;;;;;;;;;5146775;27;39629;-70
2023/10/18 03:32:20;;;;;;;3.67;2.78;;;;;;;;;;5150753;27;40917;-70
2023/10/18 03:34:52;;;;;;;2.80;2.50;;;;;;;;;;5141032;27;41635;-70
2023/10/18 03:37:21;;;;;;;3.88;3.00;;;;;;;;;;5168428;27;40107;-70
2023/10/18 03:39:52;;;;;;;3.17;2.88;;;;;;;;;;5147913;27;41556;-70
2023/10/18 03:42:33;;;;;;;5.75;3.30;;;;;;;;;;5158313;27;42080;-70
2023/10/18 03:45:01;;;;;;;3.15;2.83;;;;;;;;;;5133223;27;40426;-70
2023/10/18 03:47:35;;;;;;;3.40;2.80;;;;;;;;;;5146084;27;40497;-70
2023/10/18 03:50:13;;;;;;;3.78;3.00;;;;;;;;;;5147680;27;39760;-70
2023/10/18 03:52:41;;;;;;;3.60;2.90;;;;;;;;;;5133934;27;41059;-70
2023/10/18 03:55:16;;;;;;;3.75;2.95;;;;;;;;;;5129412;27;40847;-70
2023/10/18 03:57:45;;;;;;;3.58;2.70;;;;;;;;;;5146884;27;39039;-70
2023/10/18 04:00:37;;;;;;;4.15;2.42;;;;;;;;;;5147370;27;40425;-70
2023/10/18 04:03:09;;;;;;;3.20;2.65;;;;;;;;;;5147888;27;42553;-70
2023/10/18 04:05:42;;;;;;;6.03;3.15;;;;;;;;;;5148250;27;40088;-70
2023/10/18 04:08:13;;;;;;;2.67;2.47;;;;;;;;;;5159200;27;41588;-70
2023/10/18 04:10:42;;;;;;;4.15;3.20;;;;;;;;;;5146339;27;39933;-70
2023/10/18 04:13:12;;;;;;;2.63;2.42;;;;;;;;;;5145028;27;41816;-70
2023/10/18 04:15:41;;;;;;;3.17;2.78;;;;;;;;;;5149925;27;43096;-70
2023/10/18 04:18:13;;;;;;;3.20;2.88;;;;;;;;;;5151637;27;39740;-70
2023/10/18 04:20:44;;;;;;;3.50;2.72;;;;;;;;;;5151203;27;42798;-70
2023/10/18 04:23:18;;;;;;;3.53;2.90;;;;;;;;;;5151408;27;42164;-70
2023/10/18 04:25:57;;;;;;;3.05;2.78;;;;;;;;;;5146303;27;39894;-70
2023/10/18 04:28:25;;;;;;;3.53;3.13;;;;;;;;;;5142701;27;41717;-70
2023/10/18 04:30:59;;;;;;;3.63;2.78;;;;;;;;;;5139311;27;41582;-70
2023/10/18 04:33:28;;;;;;;3.35;2.83;;;;;;;;;;5144777;27;42517;-70
2023/10/18 04:35:58;;;;;;;3.35;2.60;;;;;;;;;;5163797;27;41475;-70
2023/10/18 04:38:31;;;;;;;3.25;2.95;;;;;;;;;;5151449;27;40445;-70
2023/10/18 04:41:07;;;;;;;3.22;2.92;;;;;;;;;;5147435;27;42540;-70
2023/10/18 04:43:36;;;;;;;3.30;3.00;;;;;;;;;;5145774;27;41833;-70
2023/10/18 04:46:07;;;;;;;4.00;3.15;;;;;;;;;;5149486;27;39983;-70
2023/10/18 04:51:28;;;;;;;3.17;2.85;;;;;;;;;;5149488;27;42836;-70
2023/10/18 04:53:57;;;;;;;3.60;3.17;;;;;;;;;;5148084;27;41865;-70
2023/10/18 04:56:32;;;;;;;3.22;2.75;;;;;;;;;;5136590;27;41465;-70
2023/10/18 04:58:59;;;;;;;3.45;2.55;;;;;;;;;;5150095;27;40131;-70
2023/10/18 05:01:34;;;;;;;3.30;3.00;;;;;;;;;;5151561;27;42010;-70
2023/10/18 05:04:18;;;;;;;3.58;2.65;;;;;;;;;;5150882;27;41931;-70
2023/10/18 05:06:54;;;;;;;3.65;2.67;;;;;;;;;;5144425;27;40180;-70
2023/10/18 05:09:31;;;;;;;3.47;2.78;;;;;;;;;;5152718;27;42207;-70
2023/10/18 05:12:03;;;;;;;4.18;3.20;;;;;;;;;;5152745;27;41195;-70
2023/10/18 05:14:40;;;;;;;3.95;3.08;;;;;;;;;;5154269;27;40990;-70
2023/10/18 05:17:23;;;;;;;3.13;2.80;;;;;;;;;;5150294;27;41779;-69
2023/10/18 05:19:51;;;;;;;3.33;3.03;;;;;;;;;;5141206;27;40124;-70
2023/10/18 05:22:23;;;;;;;2.67;2.40;;;;;;;;;;5154219;27;42192;-70
2023/10/18 05:24:57;;;;;;;4.82;2.88;;;;;;;;;;5142276;27;43718;-70
2023/10/18 05:27:26;;;;;;;3.58;2.97;;;;;;;;;;5146875;27;40133;-70
2023/10/18 05:29:54;;;;;;;3.17;2.88;;;;;;;;;;5144680;27;41057;-70
2023/10/18 05:32:39;;;;;;;3.60;2.80;;;;;;;;;;5145465;27;42636;-70
2023/10/18 05:35:21;;;;;;;3.45;3.10;;;;;;;;;;5152081;27;40261;-70
2023/10/18 05:37:58;;;;;;;3.25;2.95;;;;;;;;;;5149154;27;41139;-70
2023/10/18 05:43:22;;;;;;;3.45;2.85;;;;;;;;;;5151218;27;42784;-69
2023/10/18 05:45:55;;;;;;;3.08;2.78;;;;;;;;;;5151344;27;41775;-70
2023/10/18 05:48:24;;;;;;;3.00;2.70;;;;;;;;;;5149184;27;40316;-70
2023/10/18 05:51:01;;;;;;;3.40;2.50;;;;;;;;;;5150116;27;41574;-70
2023/10/18 05:53:31;;;;;;;4.32;3.13;;;;;;;;;;5129083;27;42946;-70
2023/10/18 05:55:59;;;;;;;3.38;2.70;;;;;;;;;;5138129;27;39669;-70
2023/10/18 05:58:27;;;;;;;3.20;2.90;;;;;;;;;;5149379;27;41770;-70
2023/10/18 06:00:57;;;;;;;3.88;3.25;;;;;;;;;;5152862;27;42992;-70
2023/10/18 06:03:26;;;;;;;2.40;2.20;;;;;;;;;;5149388;27;41129;-70
2023/10/18 06:05:55;;;;;;;3.03;2.70;;;;;;;;;;5149555;27;42016;-70
2023/10/18 06:08:24;;;;;;;3.15;2.85;;;;;;;;;;5148764;27;41045;-70
2023/10/18 06:11:00;;;;;;;3.97;2.90;;;;;;;;;;5148769;27;41611;-70
2023/10/18 06:13:28;;;;;;;5.22;3.03;;;;;;;;;;5148905;27;41503;-70
2023/10/18 06:15:58;;;;;;;3.80;2.75;;;;;;;;;;5148937;27;40325;-70
2023/10/18 06:18:30;;;;;;;4.05;2.70;;;;;;;;;;5149508;27;42105;-70
2023/10/18 06:20:59;;;;;;;2.85;2.55;;;;;;;;;;5138931;27;43089;-70
2023/10/18 06:23:39;;;;;;;3.47;2.80;;;;;;;;;;5141740;27;39957;-70
2023/10/18 06:29:00;;;;;;;2.92;2.60;;;;;;;;;;5163382;27;40156;-70
2023/10/18 06:31:29;;;;;;;3.60;3.08;;;;;;;;;;5149790;27;42154;-70
2023/10/18 06:33:59;;;;;;;3.28;2.95;;;;;;;;;;5148017;27;42128;-70
2023/10/18 06:36:32;;;;;;;3.28;2.85;;;;;;;;;;5135893;27;40973;-70
2023/10/18 06:39:00;;;;;;;3.25;2.72;;;;;;;;;;5148323;27;42328;-70
2023/10/18 06:41:30;;;;;;;3.45;2.85;;;;;;;;;;5135333;27;42913;-70
2023/10/18 06:43:59;;;;;;;2.88;2.60;;;;;;;;;;5139996;27;39940;-70
2023/10/18 06:46:27;;;;;;;4.03;2.88;;;;;;;;;;5138412;27;41339;-70
2023/10/18 06:48:57;;;;;;;3.33;2.85;;;;;;;;;;5149972;27;40294;-70
2023/10/18 06:51:42;;;;;;;3.38;2.90;;;;;;;;;;5142143;27;42136;-70
2023/10/18 06:54:14;;;;;;;3.30;2.88;;;;;;;;;;5134935;27;44261;-70
2023/10/18 06:56:46;;;;;;;4.00;2.92;;;;;;;;;;5148421;27;40969;-70
2023/10/18 06:59:14;;;;;;;4.32;3.30;;;;;;;;;;5149867;27;40989;-70
2023/10/18 07:01:53;;;;;;;3.17;2.60;;;;;;;;;;5148457;27;41759;-72
2023/10/18 07:04:27;;;;;;;3.17;2.85;;;;;;;;;;5138409;27;40776;-72
2023/10/18 07:06:55;;;;;;;8.13;3.25;;;;;;;;;;5145360;27;41784;-71
2023/10/18 07:09:26;;;;;;;3.28;2.83;;;;;;;;;;5145486;27;42188;-72
2023/10/18 07:12:03;;;;;;;3.75;2.83;;;;;;;;;;5132573;27;40992;-72
2023/10/18 07:14:31;;;;;;;3.85;2.88;;;;;;;;;;5129900;27;42696;-72
2023/10/18 07:17:00;;;;;;;3.15;2.83;;;;;;;;;;5137732;27;39919;-72
2023/10/18 07:19:33;;;;;;;6.57;3.22;;;;;;;;;;5146192;27;42857;-72
2023/10/18 07:22:06;;;;;;;3.00;2.63;;;;;;;;;;5139210;27;41905;-72
2023/10/18 07:24:36;;;;;;;4.13;2.60;;;;;;;;;;5136077;27;40465;-71
2023/10/18 07:27:09;;;;;;;3.28;2.97;;;;;;;;;;5129010;27;41573;-70
2023/10/18 07:29:37;;;;;;;10.43;2.92;;;;;;;;;;5149019;27;42065;-70
2023/10/18 07:32:12;;;;;;;4.38;3.00;;;;;;;;;;5151443;27;41654;-71
2023/10/18 07:34:42;;;;;;;7.38;3.13;;;;;;;;;;5146999;27;42714;-70
2023/10/18 07:37:19;;;;;;;4.03;2.70;;;;;;;;;;5157900;27;40888;-70
2023/10/18 07:39:48;;;;;;;5.63;2.85;;;;;;;;;;5148046;27;41974;-70
2023/10/18 07:42:20;;;;;;;4.28;3.08;;;;;;;;;;5154604;27;42062;-70
2023/10/18 07:44:52;;;;;;;7.00;3.33;;;;;;;;;;5150749;27;41301;-70
2023/10/18 07:47:25;;;;;;;5.68;3.35;;;;;;;;;;5154295;27;42211;-70
2023/10/18 07:49:55;;;;;;;4.28;3.28;;;;;;;;;;5148821;27;41979;-70
2023/10/18 07:52:23;;;;;;;6.15;3.28;;;;;;;;;;5132397;27;40215;-71
2023/10/18 07:54:51;;;;;;;9.45;3.42;;;;;;;;;;5140236;27;41602;-69
2023/10/18 07:57:33;;;;;;;11.25;3.75;;;;;;;;;;5144751;27;40175;-70
2023/10/18 08:02:43;;;;;;;15.25;4.25;;;;;;;;;;5133661;27;42109;-67
2023/10/18 08:05:12;;;;;;;8.38;5.35;;;;;;;;;;5149198;27;39556;-66
2023/10/18 08:07:48;;;;;;;4.82;4.20;;;;;;;;;;5153776;27;41702;-65
2023/10/18 08:10:19;;;;;;;6.35;5.15;;;;;;;;;;5157261;27;41693;-66
2023/10/18 08:13:03;;;;;;;8.85;5.68;;;;;;;;;;5153894;27;40210;-66
2023/10/18 08:15:34;;;;;;;11.82;4.88;;;;;;;;;;5154532;27;42736;-66
2023/10/18 08:18:14;;;;;;;7.10;5.25;;;;;;;;;;5154680;27;39965;-67
2023/10/18 08:20:56;;;;;;;4.97;4.03;;;;;;;;;;5152294;27;42352;-67
2023/10/18 08:23:35;;;;;;;6.22;4.13;;;;;;;;;;5145125;27;42301;-68
2023/10/18 08:26:06;;;;;;;6.70;5.00;;;;;;;;;;5138208;27;40244;-68
2023/10/18 08:28:39;;;;;;;6.43;4.82;;;;;;;;;;5148404;27;41376;-69
2023/10/18 08:31:16;;;;;;;8.70;4.63;;;;;;;;;;5142609;27;41662;-67
2023/10/18 08:33:44;;;;;;;10.73;4.18;;;;;;;;;;5142350;27;40496;-68
2023/10/18 08:36:14;;;;;;;9.13;3.45;;;;;;;;;;5135370;27;41087;-68
2023/10/18 08:38:44;;;;;;;7.57;4.22;;;;;;;;;;5148085;27;42041;-68
2023/10/18 08:41:15;;;;;;;7.93;4.38;;;;;;;;;;5145792;27;42550;-72
2023/10/18 08:43:48;;;;;;;26.10;3.75;;;;;;;;;;5133372;27;41550;-69
2023/10/18 08:46:24;;;;;;;7.55;4.28;;;;;;;;;;5147184;27;41092;-72
2023/10/18 08:48:52;;;;;;;8.85;3.60;;;;;;;;;;5154773;27;41449;-72
2023/10/18 08:51:21;;;;;;;3.70;3.33;;;;;;;;;;5138897;27;42522;-72
2023/10/18 08:53:49;;;;;;;6.40;3.40;;;;;;;;;;5134839;27;40288;-71
2023/10/18 08:56:24;;;;;;;3.55;2.95;;;;;;;;;;5140888;27;41492;-74
2023/10/18 08:58:56;;;;;;;7.07;3.10;;;;;;;;;;5138513;27;43047;-70
2023/10/18 09:01:24;;;;;;;4.00;3.22;;;;;;;;;;5154586;27;41415;-76
2023/10/18 09:03:51;;;;;;;12.00;4.63;;;;;;;;;;5133028;27;42323;-69
2023/10/18 09:06:31;;;;;;;11.70;4.05;;;;;;;;;;5142222;27;40240;-70
2023/10/18 09:09:04;;;;;;;12.25;4.63;;;;;;;;;;5145512;27;41615;-69
2023/10/18 09:11:32;;;;;;;6.82;3.17;;;;;;;;;;5130488;27;42179;-69
2023/10/18 09:14:07;;;;;;;11.70;4.18;;;;;;;;;;5156504;27;40338;-69
2023/10/18 09:16:37;;;;;;;6.38;3.50;;;;;;;;;;5159656;27;41571;-69
2023/10/18 09:19:06;;;;;;;9.75;4.38;;;;;;;;;;5151726;27;42361;-69
2023/10/18 09:21:42;;;;;;;6.85;3.28;;;;;;;;;;5168126;27;39830;-69
2023/10/18 09:24:11;;;;;;;8.45;3.97;;;;;;;;;;5152705;27;42306;-69
2023/10/18 09:26:42;;;;;;;8.38;4.28;;;;;;;;;;5153479;27;40555;-69
2023/10/18 09:29:11;;;;;;;9.75;4.53;;;;;;;;;;5149012;27;43142;-72
2023/10/18 09:31:51;;;;;;;11.15;3.47;;;;;;;;;;5137276;27;42730;-71
2023/10/18 09:34:20;;;;;;;7.13;3.78;;;;;;;;;;5135425;27;41205;-71
2023/10/18 09:36:54;;;;;;;8.68;2.72;;;;;;;;;;5148911;27;41453;-71
2023/10/18 09:39:24;;;;;;;7.40;2.97;;;;;;;;;;5143420;27;42714;-71
2023/10/18 09:41:53;;;;;;;15.32;3.42;;;;;;;;;;5143314;27;40339;-62
2023/10/18 09:44:22;;;;;;;9.50;2.78;;;;;;;;;;5149042;27;41178;-70
2023/10/18 09:46:54;;;;;;;10.85;2.83;;;;;;;;;;5149535;27;40814;-66
2023/10/18 09:49:24;;;;;;;5.65;2.20;;;;;;;;;;5137875;27;42290;-68
2023/10/18 09:51:54;;;;;;;7.90;2.83;;;;;;;;;;5146801;27;41434;-66
2023/10/18 09:54:23;;;;;;;3.85;2.30;;;;;;;;;;5136711;27;40094;-66
2023/10/18 09:56:53;;;;;;;8.98;2.35;;;;;;;;;;5145221;27;42259;-66
2023/10/18 09:59:30;;;;;;;9.23;2.70;;;;;;;;;;5147848;27;41726;-67
2023/10/18 10:02:07;;;;;;;10.80;2.75;;;;;;;;;;5142765;27;40361;-65
2023/10/18 10:04:35;;;;;;;6.95;2.65;;;;;;;;;;5140121;27;42119;-66
2023/10/18 10:09:50;;;;;;;10.05;2.83;;;;;;;;;;5143590;27;41866;-64
2023/10/18 10:12:18;;;;;;;4.95;2.47;;;;;;;;;;5138770;27;43551;-64
2023/10/18 10:14:48;;;;;;;5.70;3.05;;;;;;;;;;5140052;27;41018;-65
2023/10/18 10:17:17;;;;;;;12.18;2.90;;;;;;;;;;5144598;27;41684;-64
2023/10/18 10:19:47;;;;;;;5.10;2.65;;;;;;;;;;5128625;27;42706;-65
2023/10/18 10:22:17;;;;;;;5.72;2.70;;;;;;;;;;5131333;27;40432;-65
2023/10/18 10:24:50;;;;;;;4.53;2.30;;;;;;;;;;5146646;27;41092;-65
2023/10/18 10:27:49;;;;;;;13.85;2.50;;;;;;;;;;5137145;27;43091;-69
2023/10/18 10:30:25;;;;;;;8.10;2.80;;;;;;;;;;5142294;27;40577;-72
2023/10/18 10:32:54;;;;;;;10.27;3.13;;;;;;;;;;5140134;27;42570;-68
2023/10/18 10:35:25;;;;;;;6.53;2.17;;;;;;;;;;5136072;27;41263;-67
2023/10/18 10:37:53;;;;;;;5.65;2.25;;;;;;;;;;5140160;27;41003;-69
2023/10/18 10:40:35;;;;;;;7.50;2.22;;;;;;;;;;5136141;27;41636;-72
2023/10/18 10:43:04;;;;;;;8.13;2.55;;;;;;;;;;5144647;27;39760;-71
2023/10/18 10:45:38;;;;;;;7.90;2.50;;;;;;;;;;5148928;27;41497;-69
2023/10/18 10:48:30;;;;;;;6.68;2.90;;;;;;;;;;5136465;27;42129;-68
2023/10/18 10:51:06;;;;;;;14.07;3.10;;;;;;;;;;5145477;27;40135;-66
2023/10/18 10:53:43;;;;;;;12.68;3.90;;;;;;;;;;5136066;27;42329;-68
2023/10/18 10:56:17;;;;;;;8.00;2.67;;;;;;;;;;5141091;27;41749;-67
2023/10/18 10:58:54;;;;;;;9.45;2.92;;;;;;;;;;5146200;27;41329;-76
2023/10/18 11:01:39;;;;;;;11.85;3.30;;;;;;;;;;5146122;27;41728;-71
2023/10/18 11:04:11;;;;;;;12.75;3.50;;;;;;;;;;5137401;27;41103;-68
2023/10/18 11:06:43;;;;;;;18.88;3.75;;;;;;;;;;5151645;27;42578;-67
2023/10/18 11:09:15;;;;;;;15.27;4.25;;;;;;;;;;5140238;27;43366;-71
2023/10/18 11:11:44;;;;;;;12.48;3.90;;;;;;;;;;5145894;27;40131;-67
2023/10/18 11:14:17;;;;;;;21.50;4.28;;;;;;;;;;5143284;27;42146;-65
2023/10/18 11:16:48;;;;;;;17.05;3.65;;;;;;;;;;5146883;27;42374;-66
2023/10/18 11:19:18;;;;;;;22.27;5.10;;;;;;;;;;5141893;27;42067;-65
2023/10/18 11:21:51;;;;;;;31.70;5.75;;;;;;;;;;5146908;27;41949;-64
2023/10/18 11:24:21;;;;;;;23.17;5.38;;;;;;;;;;5145275;27;40281;-68
2023/10/18 11:26:51;;;;;;;30.88;6.07;;;;;;;;;;5147631;27;41312;-68
2023/10/18 11:29:24;;;;;;;34.67;6.03;;;;;;;;;;5145955;27;41637;-67
2023/10/18 11:31:56;;;;;;;40.65;6.85;;;;;;;;;;5146366;27;40356;-68
2023/10/18 11:34:25;;;;;;;27.98;6.65;;;;;;;;;;5147483;27;41673;-68
2023/10/18 11:36:54;;;;;;;26.17;5.47;;;;;;;;;;5147141;27;43251;-67
2023/10/18 11:39:25;;;;;;;26.25;6.30;;;;;;;;;;5146285;27;40789;-68
2023/10/18 11:41:56;;;;;;;24.80;5.57;;;;;;;;;;5136379;27;43634;-63
2023/10/18 11:44:30;;;;;;;36.10;6.10;;;;;;;;;;5143883;27;40421;-60
2023/10/18 11:47:08;;;;;;;31.83;6.13;;;;;;;;;;5137511;27;41582;-60
2023/10/18 11:49:37;;;;;;;28.65;5.28;;;;;;;;;;5146786;27;42071;-72
2023/10/18 11:52:05;;;;;;;35.67;5.32;;;;;;;;;;5138894;27;40121;-64
2023/10/18 11:54:33;;;;;;;21.80;5.38;;;;;;;;;;5135183;27;41154;-63
2023/10/18 11:57:01;;;;;;;25.00;5.70;;;;;;;;;;5140097;27;41642;-62
2023/10/18 11:59:29;;;;;;;20.27;5.00;;;;;;;;;;5131285;27;40353;-63
2023/10/18 12:01:58;;;;;;;27.15;5.38;;;;;;;;;;5145309;27;42126;-64
2023/10/18 12:04:28;;;;;;;23.80;4.28;;;;;;;;;;5142445;27;40803;-62
2023/10/18 12:06:57;;;;;;;18.75;4.85;;;;;;;;;;5135673;27;41484;-62
2023/10/18 12:09:31;;;;;;;22.67;4.97;;;;;;;;;;5160522;27;42731;-63
2023/10/18 12:12:05;;;;;;;28.48;5.95;;;;;;;;;;5161384;27;40397;-63
2023/10/18 12:14:34;;;;;;;34.80;6.20;;;;;;;;;;5151332;27;41627;-63
2023/10/18 12:17:02;;;;;;;33.22;5.72;;;;;;;;;;5164254;27;41847;-65
2023/10/18 12:19:36;;;;;;;33.28;6.53;;;;;;;;;;5153152;27;40485;-71
2023/10/18 12:22:04;;;;;;;38.03;7.22;;;;;;;;;;5163922;27;42150;-63
2023/10/18 12:24:33;;;;;;;26.00;5.22;;;;;;;;;;5164173;27;40868;-63
2023/10/18 12:27:15;;;;;;;24.02;5.80;;;;;;;;;;5154532;27;41817;-60
2023/10/18 12:29:44;;;;;;;16.60;6.05;;;;;;;;;;5148057;27;42236;-61
2023/10/18 12:32:23;;;;;;;13.35;6.40;;;;;;;;;;5158617;27;40216;-61
2023/10/18 12:34:56;;;;;;;21.02;6.88;;;;;;;;;;5161207;27;41886;-70
2023/10/18 12:37:25;;;;;;;17.88;5.95;;;;;;;;;;5167312;27;41726;-68
2023/10/18 12:39:57;;;;;;;20.98;4.72;;;;;;;;;;5145439;27;40187;-69
2023/10/18 12:42:33;;;;;;;12.48;4.35;;;;;;;;;;5145920;27;42356;-66
2023/10/18 12:45:09;;;;;;;20.77;4.70;;;;;;;;;;5152739;27;42041;-66
2023/10/18 12:47:37;;;;;;;19.13;4.60;;;;;;;;;;5152268;27;42803;-66
2023/10/18 12:50:07;;;;;;;15.43;4.30;;;;;;;;;;5149153;27;41685;-66
2023/10/18 12:52:42;;;;;;;11.43;4.20;;;;;;;;;;5144990;27;40101;-66
2023/10/18 12:57:52;;;;;;;16.38;3.80;;;;;;;;;;5149465;27;43142;-60
2023/10/18 13:00:19;;;;;;;10.32;3.33;;;;;;;;;;5149488;27;41364;-61
2023/10/18 13:03:15;;;;;;;15.50;3.95;;;;;;;;;;5149231;27;41615;-60
2023/10/18 13:05:40;;;;;;;14.77;3.78;;;;;;;;;;5139279;27;42923;-60
2023/10/18 13:08:16;;;;;;;22.48;3.67;;;;;;;;;;5143069;27;40903;-61
2023/10/18 13:10:48;;;;;;;13.43;3.28;;;;;;;;;;5134496;27;42119;-61
2023/10/18 13:13:16;;;;;;;13.30;3.47;;;;;;;;;;5136658;27;40385;-61
2023/10/18 13:15:46;;;;;;;18.67;3.63;;;;;;;;;;5159364;27;41721;-61
2023/10/18 13:18:14;;;;;;;13.98;3.28;;;;;;;;;;5149561;27;42143;-61
2023/10/18 13:20:45;;;;;;;11.68;3.05;;;;;;;;;;5159269;27;40973;-61
2023/10/18 13:23:18;;;;;;;12.88;3.05;;;;;;;;;;5147157;27;41253;-61
2023/10/18 13:25:52;;;;;;;14.57;3.63;;;;;;;;;;5159453;27;42087;-61
2023/10/18 13:28:33;;;;;;;26.58;3.88;;;;;;;;;;5161156;27;40505;-61
2023/10/18 13:31:04;;;;;;;15.63;3.35;;;;;;;;;;5160600;27;41819;-61
2023/10/18 13:33:33;;;;;;;9.05;3.10;;;;;;;;;;5144339;27;40302;-61
2023/10/18 13:36:04;;;;;;;11.10;3.25;;;;;;;;;;5158204;27;41431;-61
2023/10/18 13:38:32;;;;;;;10.70;3.30;;;;;;;;;;5155234;27;41536;-60
2023/10/18 13:41:00;;;;;;;10.40;3.20;;;;;;;;;;5142802;27;41327;-61
2023/10/18 13:43:28;;;;;;;13.05;3.10;;;;;;;;;;5154974;27;41445;-60
2023/10/18 13:45:56;;;;;;;10.52;3.17;;;;;;;;;;5162677;27;41770;-61
2023/10/18 13:48:25;;;;;;;10.57;3.13;;;;;;;;;;5162474;27;40289;-60
2023/10/18 13:50:58;;;;;;;15.93;3.08;;;;;;;;;;5149374;27;41067;-61
2023/10/18 13:53:27;;;;;;;8.02;3.30;;;;;;;;;;5141634;27;31925;-61
2023/10/18 13:55:58;;;;;;;6.78;2.88;;;;;;;;;;5139270;27;43145;-61
2023/10/18 13:58:29;;;;;;;10.70;2.70;;;;;;;;;;5147920;27;41446;-61
2023/10/18 14:00:58;;;;;;;8.68;2.83;;;;;;;;;;5148804;27;40936;-61
2023/10/18 14:03:27;;;;;;;11.85;2.67;;;;;;;;;;5148268;27;40946;-61
2023/10/18 14:05:55;;;;;;;17.05;3.00;;;;;;;;;;5153067;27;42740;-60
2023/10/18 14:08:24;;;;;;;7.93;3.38;;;;;;;;;;5163417;27;40342;-65
2023/10/18 14:10:55;;;;;;;11.75;2.88;;;;;;;;;;5155356;27;42756;-61
2023/10/18 14:13:24;;;;;;;8.25;2.95;;;;;;;;;;5154724;27;41878;-60
2023/10/18 14:15:52;;;;;;;8.90;3.22;;;;;;;;;;5128928;27;42119;-60
2023/10/18 14:18:25;;;;;;;12.20;2.78;;;;;;;;;;5147510;27;41725;-61
2023/10/18 14:20:53;;;;;;;11.23;2.55;;;;;;;;;;5133016;27;40542;-60
2023/10/18 14:23:27;;;;;;;7.20;3.08;;;;;;;;;;5162059;27;41845;-60
2023/10/18 14:25:56;;;;;;;5.60;2.42;;;;;;;;;;5158949;27;41749;-61
2023/10/18 14:28:24;;;;;;;8.02;2.90;;;;;;;;;;5145640;27;40328;-63
2023/10/18 14:30:55;;;;;;;13.50;4.25;;;;;;;;;;5150472;27;41720;-65
2023/10/18 14:33:26;;;;;;;32.47;3.80;;;;;;;;;;5152908;27;42486;-61
2023/10/18 14:36:07;;;;;;;22.30;3.40;;;;;;;;;;5162157;27;41512;-64
2023/10/18 14:38:35;;;;;;;12.43;3.20;;;;;;;;;;5153109;27;41381;-64
2023/10/18 14:41:08;;;;;;;21.20;3.58;;;;;;;;;;5143470;27;41283;-64
2023/10/18 14:43:55;;;;;;;12.13;2.60;;;;;;;;;;5132784;27;42174;-64
2023/10/18 14:46:24;;;;;;;17.13;2.88;;;;;;;;;;5138748;27;41620;-64
2023/10/18 14:48:53;;;;;;;10.70;3.28;;;;;;;;;;5130521;27;39730;-64
2023/10/18 14:51:22;;;;;;;9.82;2.78;;;;;;;;;;5127619;27;42612;-69
2023/10/18 14:53:50;;;;;;;9.88;2.78;;;;;;;;;;5137012;27;42250;-64
2023/10/18 14:56:22;;;;;;;10.85;2.55;;;;;;;;;;5141826;27;40059;-65
2023/10/18 14:58:50;;;;;;;11.25;2.45;;;;;;;;;;5139750;27;41771;-70
2023/10/18 15:01:18;;;;;;;6.45;2.67;;;;;;;;;;5140466;27;40153;-69
2023/10/18 15:03:47;;;;;;;14.65;2.97;;;;;;;;;;5134925;27;40574;-65
2023/10/18 15:06:16;;;;;;;4.43;2.50;;;;;;;;;;5130562;27;42661;-68
2023/10/18 15:08:45;;;;;;;4.15;2.30;;;;;;;;;;5134836;27;40475;-68
2023/10/18 15:11:14;;;;;;;8.32;2.88;;;;;;;;;;5142069;27;41593;-68
2023/10/18 15:13:46;;;;;;;14.63;2.42;;;;;;;;;;5137014;27;42208;-69
2023/10/18 15:16:14;;;;;;;5.70;2.00;;;;;;;;;;5134109;27;40489;-68
2023/10/18 15:18:42;;;;;;;4.55;2.30;;;;;;;;;;5137182;27;41680;-68
2023/10/18 15:21:15;;;;;;;9.02;2.30;;;;;;;;;;5138890;27;42154;-68